Time,TemperatureF,DewpointF,PressureIn,WindDirection,WindDirectionDegrees,WindSpeedMPH,WindSpeedGustMPH,Humidity,HourlyPrecipIn,Conditions,Clouds,dailyrainin,SolarRadiationWatts/m^2,SoftwareType,DateUTC
2013-09-16 00:00:00,56.0,-99.9,-100.00,WNW,283,4.0,15.0,-999,-99.99,,,0.00,93.500000,,2013-09-16 06:00:00,
2013-09-16 00:52:00,56.0,-99.9,-100.00,WNW,283,4.0,15.0,-999,-99.99,,,0.00,93.500000,,2013-09-16 06:52:00,
2013-09-16 02:00:00,54.0,-99.9,-100.00,South,177,2.0,6.0,-999,-99.99,,,0.00,93.300003,,2013-09-16 08:00:00,
2013-09-16 02:52:00,54.0,-99.9,-100.00,South,177,2.0,6.0,-999,-99.99,,,0.00,93.300003,,2013-09-16 08:52:00,
2013-09-16 03:00:00,51.0,-99.9,-100.00,East,81,2.0,6.0,-999,-99.99,,,0.00,93.099998,,2013-09-16 09:00:00,
2013-09-16 03:53:00,51.0,-99.9,-100.00,East,81,2.0,6.0,-999,-99.99,,,0.00,93.099998,,2013-09-16 09:53:00,
2013-09-16 04:00:00,52.0,-99.9,-100.00,North,7,1.0,4.0,-999,-99.99,,,-99.99,93.500000,,2013-09-16 10:00:00,
2013-09-16 04:53:00,52.0,-99.9,-100.00,North,7,1.0,4.0,-999,-99.99,,,-99.99,93.500000,,2013-09-16 10:53:00,
2013-09-16 05:00:00,49.0,-99.9,-100.00,West,276,1.0,4.0,-999,-99.99,,,-99.99,93.500000,,2013-09-16 11:00:00,
2013-09-16 05:52:00,49.0,-99.9,-100.00,West,276,1.0,4.0,-999,-99.99,,,-99.99,93.500000,,2013-09-16 11:52:00,
2013-09-16 06:00:00,47.0,-99.9,-100.00,ENE,67,0.0,2.0,-999,-99.99,,,0.00,93.500000,,2013-09-16 12:00:00,
2013-09-16 06:52:00,47.0,-99.9,-100.00,ENE,67,0.0,2.0,-999,-99.99,,,0.00,93.500000,,2013-09-16 12:52:00,
2013-09-16 08:00:00,47.0,-99.9,-100.00,NW,317,1.0,3.0,-999,-99.99,,,0.00,93.800003,,2013-09-16 14:00:00,
2013-09-16 08:52:00,47.0,-99.9,-100.00,NW,317,1.0,3.0,-999,-99.99,,,0.00,93.800003,,2013-09-16 14:52:00,
2013-09-16 09:00:00,53.0,-99.9,-100.00,South,190,1.0,4.0,-999,-99.99,,,0.00,93.699997,,2013-09-16 15:00:00,
2013-09-16 09:53:00,53.0,-99.9,-100.00,South,190,1.0,4.0,-999,-99.99,,,0.00,93.699997,,2013-09-16 15:53:00,
2013-09-16 10:00:00,61.0,-99.9,-100.00,SSE,162,3.0,6.0,-999,-99.99,,,0.00,93.800003,,2013-09-16 16:00:00,
2013-09-16 10:52:00,61.0,-99.9,-100.00,SSE,162,3.0,6.0,-999,-99.99,,,0.00,93.800003,,2013-09-16 16:52:00,
2013-09-16 13:00:00,70.0,-99.9,-100.00,SSW,192,9.0,15.0,-999,-99.99,,,0.00,93.400002,,2013-09-16 19:00:00,
2013-09-16 13:53:00,70.0,-99.9,-100.00,SSW,192,9.0,15.0,-999,-99.99,,,0.00,93.400002,,2013-09-16 19:53:00,
2013-09-16 14:00:00,70.0,-99.9,-100.00,SSE,165,9.0,15.0,-999,-99.99,,,0.00,93.599998,,2013-09-16 20:00:00,
2013-09-16 14:52:00,70.0,-99.9,-100.00,SSE,165,9.0,15.0,-999,-99.99,,,0.00,93.599998,,2013-09-16 20:52:00,
2013-09-16 15:00:00,70.0,-99.9,-100.00,SSW,202,10.0,18.0,-999,-99.99,,,0.00,93.800003,,2013-09-16 21:00:00,
2013-09-16 15:56:00,70.0,-99.9,-100.00,SSW,202,10.0,18.0,-999,-99.99,,,0.00,93.800003,,2013-09-16 21:56:00,
2013-09-16 17:00:00,70.0,-99.9,-100.00,SW,216,9.0,17.0,-999,-99.99,,,0.00,93.900002,,2013-09-16 23:00:00,
2013-09-16 17:53:00,70.0,-99.9,-100.00,SW,216,9.0,17.0,-999,-99.99,,,0.00,93.900002,,2013-09-16 23:53:00,
2013-09-16 19:00:00,68.0,-99.9,-100.00,SW,228,5.0,11.0,-999,-99.99,,,0.00,93.599998,,2013-09-17 01:00:00,
2013-09-16 19:52:00,68.0,-99.9,-100.00,SW,228,5.0,11.0,-999,-99.99,,,0.00,93.599998,,2013-09-17 01:52:00,
2013-09-16 20:00:00,62.0,-99.9,-100.00,West,267,3.0,6.0,-999,-99.99,,,0.00,93.699997,,2013-09-17 02:00:00,
2013-09-16 20:53:00,62.0,-99.9,-100.00,West,267,3.0,6.0,-999,-99.99,,,0.00,93.699997,,2013-09-17 02:53:00,
2013-09-16 21:00:00,56.0,-99.9,-100.00,NNW,341,1.0,5.0,-999,-99.99,,,0.00,93.800003,,2013-09-17 03:00:00,
2013-09-16 21:54:00,56.0,-99.9,-100.00,NNW,341,1.0,5.0,-999,-99.99,,,0.00,93.800003,,2013-09-17 03:54:00,